createdAt,value
2023-03-06T00:03:33.727Z,100.00
2023-03-06T00:07:36.768Z,100.00
2023-03-06T00:11:39.766Z,100.00
2023-03-06T00:15:42.778Z,100.00
2023-03-06T00:19:45.769Z,100.00
2023-03-06T00:23:48.716Z,100.00
2023-03-06T00:27:52.136Z,100.00
2023-03-06T00:31:55.678Z,100.00
2023-03-06T00:35:59.511Z,100.00
2023-03-06T00:40:04.328Z,100.00
2023-03-06T00:44:07.401Z,100.00
2023-03-06T00:48:10.952Z,100.00
2023-03-06T00:52:19.093Z,100.00
2023-03-06T00:56:22.461Z,100.00
2023-03-06T01:00:25.689Z,100.00
2023-03-06T01:04:28.650Z,100.00
2023-03-06T01:08:31.793Z,100.00
2023-03-06T01:12:35.193Z,100.00
2023-03-06T01:16:38.388Z,100.00
2023-03-06T01:20:41.520Z,100.00
2023-03-06T01:24:44.671Z,100.00
2023-03-06T01:28:47.590Z,100.00
2023-03-06T01:32:51.150Z,100.00
2023-03-06T01:36:54.646Z,100.00
2023-03-06T01:40:58.303Z,100.00
2023-03-06T01:45:14.234Z,100.00
2023-03-06T01:49:22.230Z,100.00
2023-03-06T01:58:12.888Z,100.00
2023-03-06T02:02:17.274Z,100.00
2023-03-06T02:06:25.033Z,100.00
2023-03-06T02:10:28.980Z,100.00
2023-03-06T02:15:21.913Z,100.00
2023-03-06T02:19:54.110Z,100.00
2023-03-06T02:24:12.539Z,100.00
2023-03-06T02:28:18.600Z,100.00
2023-03-06T02:32:21.477Z,100.00
2023-03-06T02:36:24.226Z,100.00
2023-03-06T02:40:27.105Z,100.00
2023-03-06T02:44:35.834Z,100.00
2023-03-06T02:48:38.603Z,100.00
2023-03-06T02:52:41.353Z,100.00
2023-03-06T02:57:11.474Z,100.00
2023-03-06T03:01:14.490Z,100.00
2023-03-06T03:06:18.361Z,100.00
2023-03-06T03:10:21.178Z,100.00
2023-03-06T03:14:24.758Z,100.00
2023-03-06T03:18:27.679Z,100.00
2023-03-06T03:22:30.661Z,100.00
2023-03-06T03:27:01.974Z,100.00
2023-03-06T03:31:06.760Z,100.00
2023-03-06T03:36:00.119Z,100.00
2023-03-06T03:40:04.227Z,100.00
2023-03-06T03:49:46.160Z,100.00
2023-03-06T03:53:49.379Z,100.00
2023-03-06T03:57:52.178Z,100.00
2023-03-06T04:01:56.135Z,100.00
2023-03-06T04:06:19.924Z,100.00
2023-03-06T04:10:22.705Z,100.00
2023-03-06T04:14:45.119Z,100.00
2023-03-06T04:18:47.878Z,100.00
2023-03-06T04:23:03.220Z,100.00
2023-03-06T04:27:06.073Z,100.00
2023-03-06T04:31:15.350Z,100.00
2023-03-06T04:35:18.356Z,100.00
2023-03-06T04:58:33.594Z,100.00
2023-03-06T05:09:14.517Z,100.00
2023-03-06T05:13:17.296Z,100.00
2023-03-06T05:17:24.013Z,100.00
2023-03-06T05:21:26.828Z,100.00
2023-03-06T05:25:29.681Z,100.00
2023-03-06T05:29:36.970Z,100.00
2023-03-06T05:33:39.646Z,100.00
2023-03-06T05:37:42.503Z,100.00
2023-03-06T05:41:56.771Z,100.00
2023-03-06T05:46:05.528Z,100.00
2023-03-06T05:50:10.625Z,100.00
2023-03-06T06:08:55.879Z,100.00
2023-03-06T06:13:58.182Z,99.96
2023-03-06T06:23:31.045Z,98.67
2023-03-06T06:27:35.406Z,97.97
2023-03-06T06:31:40.902Z,97.96
2023-03-06T06:35:48.108Z,97.92
2023-03-06T06:39:51.050Z,97.51
2023-03-06T06:43:53.974Z,97.13
2023-03-06T06:48:05.174Z,96.56
2023-03-06T06:52:08.114Z,96.07
2023-03-06T07:01:36.029Z,94.31
2023-03-06T07:29:58.934Z,92.30
2023-03-06T07:34:04.519Z,92.41
2023-03-06T07:38:07.863Z,91.68
2023-03-06T07:42:14.140Z,91.60
2023-03-06T07:46:19.523Z,89.88
2023-03-06T07:50:22.299Z,88.17
2023-03-06T07:54:26.867Z,88.20
2023-03-06T07:58:57.158Z,86.83
2023-03-06T08:03:00.077Z,86.15
2023-03-06T08:07:03.602Z,84.94
2023-03-06T08:11:07.865Z,84.12
2023-03-06T08:15:12.000Z,84.21
2023-03-06T08:19:15.750Z,83.32
2023-03-06T08:46:11.251Z,80.52
2023-03-06T08:55:03.859Z,78.63
2023-03-06T08:59:09.628Z,78.42
2023-03-06T09:03:12.689Z,78.62
2023-03-06T09:07:16.231Z,77.83
2023-03-06T09:11:20.640Z,77.23
2023-03-06T09:15:51.230Z,78.21
2023-03-06T09:19:53.920Z,78.23
2023-03-06T09:23:56.860Z,78.55
2023-03-06T09:28:11.005Z,78.67
2023-03-06T09:32:40.638Z,78.32
2023-03-06T09:36:56.058Z,77.81
2023-03-06T09:41:41.535Z,78.31
2023-03-06T09:45:45.270Z,74.72
2023-03-06T10:01:01.272Z,75.58
2023-03-06T10:05:07.273Z,74.14
2023-03-06T10:09:32.092Z,74.87
2023-03-06T10:14:12.560Z,74.16
2023-03-06T10:18:33.608Z,74.43
2023-03-06T10:28:41.461Z,78.27
2023-03-06T10:32:56.126Z,76.15
2023-03-06T10:37:19.161Z,77.19
2023-03-06T10:41:24.888Z,75.54
2023-03-06T10:45:27.977Z,76.51
2023-03-06T10:49:37.120Z,75.21
2023-03-06T10:54:14.431Z,74.60
2023-03-06T10:58:22.812Z,73.32
2023-03-06T11:02:32.020Z,74.06
2023-03-06T11:06:35.661Z,73.66
2023-03-06T11:10:39.541Z,72.96
2023-03-06T11:15:23.432Z,73.88
2023-03-06T11:19:29.211Z,72.12
2023-03-06T11:23:54.444Z,72.70
2023-03-06T11:28:25.003Z,72.70
2023-03-06T11:32:57.771Z,74.28
2023-03-06T11:37:26.001Z,73.08
2023-03-06T11:41:44.068Z,71.69
2023-03-06T11:46:25.844Z,73.91
2023-03-06T11:50:36.647Z,73.60
2023-03-06T11:54:39.455Z,75.04
2023-03-06T11:59:20.916Z,75.83
2023-03-06T12:04:11.325Z,73.66
2023-03-06T12:08:20.734Z,74.27
2023-03-06T12:12:44.366Z,74.57
2023-03-06T12:17:26.559Z,73.61
2023-03-06T12:22:11.198Z,75.50
2023-03-06T12:26:58.734Z,77.29
2023-03-06T12:31:48.471Z,83.80
2023-03-06T12:59:24.205Z,99.52
2023-03-06T13:04:16.871Z,99.91
2023-03-06T13:08:57.817Z,99.42
2023-03-06T13:13:49.370Z,97.91
2023-03-06T13:17:52.265Z,97.25
2023-03-06T13:21:57.323Z,91.47
2023-03-06T13:26:04.241Z,91.33
2023-03-06T13:30:38.984Z,91.38
2023-03-06T13:34:43.387Z,87.35
2023-03-06T13:38:49.052Z,84.43
2023-03-06T13:48:15.629Z,84.56
2023-03-06T13:52:32.520Z,84.38
2023-03-06T13:56:53.542Z,83.28
2023-03-06T14:01:27.800Z,83.25
2023-03-06T14:05:45.090Z,81.65
2023-03-06T14:09:58.344Z,81.90
2023-03-06T14:14:02.039Z,81.67
2023-03-06T14:18:08.164Z,80.05
2023-03-06T14:22:18.798Z,80.43
2023-03-06T14:26:26.622Z,80.94
2023-03-06T14:30:29.588Z,80.56
2023-03-06T14:34:39.955Z,77.72
2023-03-06T14:38:47.356Z,77.02
2023-03-06T14:43:10.000Z,77.88
2023-03-06T14:47:31.180Z,77.56
2023-03-06T14:51:42.541Z,77.71
2023-03-06T14:56:01.209Z,78.16
2023-03-06T15:00:05.520Z,77.13
2023-03-06T15:04:23.756Z,78.05
2023-03-06T15:08:31.378Z,78.07
2023-03-06T15:12:36.628Z,78.48
2023-03-06T15:16:39.638Z,78.29
2023-03-06T15:20:47.858Z,78.15
2023-03-06T15:24:51.114Z,78.18
2023-03-06T15:29:08.272Z,78.71
2023-03-06T15:33:24.634Z,79.55
2023-03-06T15:37:29.192Z,79.75
2023-03-06T15:41:37.842Z,79.73
2023-03-06T15:45:40.983Z,78.90
2023-03-06T15:49:43.881Z,79.27
2023-03-06T15:53:46.845Z,80.79
2023-03-06T15:57:59.900Z,83.75
2023-03-06T16:02:14.493Z,85.95
2023-03-06T16:06:19.834Z,86.58
2023-03-06T16:10:25.651Z,86.46
2023-03-06T16:14:29.001Z,85.57
2023-03-06T16:18:31.940Z,85.67
2023-03-06T16:22:35.213Z,85.90
2023-03-06T16:26:38.419Z,86.02
2023-03-06T16:30:43.592Z,86.12
2023-03-06T16:34:47.131Z,85.82
2023-03-06T16:38:51.390Z,85.68
2023-03-06T16:42:55.559Z,85.66
2023-03-06T16:47:00.844Z,85.53
2023-03-06T16:51:04.066Z,85.32
2023-03-06T16:55:07.348Z,85.25
2023-03-06T16:59:10.967Z,85.49
2023-03-06T17:03:14.379Z,85.53
2023-03-06T17:07:17.431Z,85.24
2023-03-06T17:11:20.563Z,85.27
2023-03-06T17:15:24.424Z,84.91
2023-03-06T17:19:27.524Z,85.22
2023-03-06T17:23:31.125Z,85.45
2023-03-06T17:27:35.568Z,85.26
2023-03-06T17:31:39.511Z,85.56
2023-03-06T17:35:43.113Z,86.09
2023-03-06T17:39:46.709Z,86.37
2023-03-06T17:43:50.862Z,86.81
2023-03-06T17:47:54.490Z,87.01
2023-03-06T17:51:59.967Z,86.67
2023-03-06T17:56:05.274Z,86.60
2023-03-06T18:00:09.605Z,87.44
2023-03-06T18:04:13.199Z,87.67
2023-03-06T18:08:15.999Z,87.32
2023-03-06T18:12:19.303Z,87.38
2023-03-06T18:16:25.280Z,87.78
2023-03-06T18:20:28.473Z,89.52
2023-03-06T18:24:31.382Z,90.92
2023-03-06T18:28:34.549Z,93.59
2023-03-06T18:32:37.700Z,94.59
2023-03-06T18:36:42.555Z,96.44
2023-03-06T18:40:46.279Z,97.64
2023-03-06T18:44:49.380Z,98.18
2023-03-06T18:48:52.663Z,97.71
2023-03-06T18:52:55.718Z,98.03
2023-03-06T18:56:58.798Z,98.64
2023-03-06T19:01:08.900Z,98.95
2023-03-06T19:05:11.852Z,99.14
2023-03-06T19:09:15.560Z,99.12
2023-03-06T19:13:18.516Z,98.55
2023-03-06T19:17:23.421Z,97.28
2023-03-06T19:21:28.600Z,96.97
2023-03-06T19:25:32.773Z,97.43
2023-03-06T19:29:35.775Z,97.84
2023-03-06T19:33:39.722Z,97.77
2023-03-06T19:37:42.669Z,98.57
2023-03-06T19:41:48.975Z,97.98
2023-03-06T19:45:51.906Z,97.90
2023-03-06T19:49:55.074Z,98.21
2023-03-06T19:53:58.042Z,98.21
2023-03-06T19:58:01.208Z,98.22
2023-03-06T20:02:04.158Z,97.99
2023-03-06T20:06:12.573Z,97.69
2023-03-06T20:10:16.220Z,97.59
2023-03-06T20:14:19.584Z,97.08
2023-03-06T20:18:22.448Z,96.44
2023-03-06T20:22:25.701Z,95.49
2023-03-06T20:26:29.488Z,94.97
2023-03-06T20:30:38.041Z,94.68
2023-03-06T20:34:41.821Z,94.92
2023-03-06T20:38:46.978Z,94.82
2023-03-06T20:42:49.786Z,94.37
2023-03-06T20:46:52.791Z,94.30
2023-03-06T22:01:29.193Z,98.64
2023-03-06T22:06:07.089Z,98.78
2023-03-06T22:10:12.267Z,98.98
2023-03-06T22:14:34.610Z,99.12
2023-03-06T22:18:37.774Z,99.04
2023-03-06T22:23:15.887Z,99.16
2023-03-06T22:27:18.803Z,99.22
2023-03-06T22:31:52.093Z,99.56
2023-03-06T22:40:19.920Z,100.00
2023-03-06T22:44:45.835Z,99.83
2023-03-06T22:48:48.648Z,100.00
2023-03-06T22:52:51.439Z,99.91
2023-03-06T22:57:49.072Z,98.19
2023-03-06T23:02:48.006Z,98.28
2023-03-06T23:06:51.145Z,99.09
2023-03-06T23:11:46.860Z,99.65
2023-03-06T23:15:49.724Z,99.66
2023-03-06T23:19:53.163Z,99.88
2023-03-06T23:23:56.107Z,99.91
2023-03-06T23:27:58.940Z,98.45
2023-03-06T23:32:01.859Z,98.59
2023-03-06T23:36:07.095Z,98.71
2023-03-06T23:41:20.204Z,97.92
2023-03-06T23:45:23.089Z,98.93
2023-03-06T23:49:26.035Z,99.99
2023-03-06T23:54:21.213Z,100.00
2023-03-06T23:58:24.028Z,100.00
